Time;durP1;ratioP1;P1;durP2;ratioP2;P2;SDS_P1;SDS_P2;PMS_P1;PMS_P2;Temp;Humidity;BMP_temperature;BMP_pressure;BME280_temperature;BME280_humidity;BME280_pressure;Samples;Min_cycle;Max_cycle;Signal;HPM_P1;HPM_P2
2021/11/16 00:00:10;;;;;;;;;20.75;18.00;;;;;;;;5036760;28;45371;-76
2021/11/16 00:02:35;;;;;;;;;17.75;16.50;;;;;;;;5036748;28;45415;-77
2021/11/16 00:05:00;;;;;;;;;22.00;18.00;;;;;;;;5036741;28;45554;-76
2021/11/16 00:07:26;;;;;;;;;19.50;18.00;;;;;;;;5036310;28;45580;-76
2021/11/16 00:09:51;;;;;;;;;15.50;12.75;;;;;;;;5036516;28;45514;-76
2021/11/16 00:12:16;;;;;;;;;22.00;16.25;;;;;;;;5036910;28;45308;-75
2021/11/16 00:14:42;;;;;;;;;25.25;16.75;;;;;;;;5036342;28;45257;-75
2021/11/16 00:17:07;;;;;;;;;15.50;14.00;;;;;;;;5036645;28;47012;-76
2021/11/16 00:19:32;;;;;;;;;13.50;13.50;;;;;;;;5035667;28;45494;-76
2021/11/16 00:21:58;;;;;;;;;18.25;15.00;;;;;;;;5036238;28;45375;-76
2021/11/16 00:27:11;;;;;;;;;16.50;15.75;;;;;;;;4990624;28;45651;-74
2021/11/16 00:29:37;;;;;;;;;22.75;17.50;;;;;;;;4976528;28;45636;-75
2021/11/16 00:32:05;;;;;;;;;20.00;17.00;;;;;;;;4978702;28;45463;-76
2021/11/16 00:34:30;;;;;;;;;19.75;15.50;;;;;;;;4978264;28;45414;-75
2021/11/16 00:36:56;;;;;;;;;16.75;14.00;;;;;;;;4978452;28;45341;-77
2021/11/16 00:39:21;;;;;;;;;15.25;12.50;;;;;;;;4978197;28;45396;-75
2021/11/16 00:41:46;;;;;;;;;13.75;13.50;;;;;;;;4975724;28;45461;-77
2021/11/16 00:44:12;;;;;;;;;18.00;16.00;;;;;;;;4979802;28;45428;-77
2021/11/16 00:46:37;;;;;;;;;20.00;19.00;;;;;;;;4984735;28;47369;-77
2021/11/16 00:49:03;;;;;;;;;15.50;15.50;;;;;;;;4984402;28;45310;-77
2021/11/16 00:51:28;;;;;;;;;20.00;18.50;;;;;;;;4978204;28;45489;-76
2021/11/16 00:53:53;;;;;;;;;17.00;15.25;;;;;;;;4974290;28;45463;-76
2021/11/16 00:56:19;;;;;;;;;18.25;15.25;;;;;;;;4978888;28;46951;-77
2021/11/16 00:58:44;;;;;;;;;22.75;18.75;;;;;;;;4978069;28;46663;-76
2021/11/16 01:01:09;;;;;;;;;21.00;15.75;;;;;;;;4978263;28;45409;-77
2021/11/16 01:03:35;;;;;;;;;20.75;16.50;;;;;;;;4985098;28;45517;-77
2021/11/16 01:06:00;;;;;;;;;23.00;18.00;;;;;;;;5035578;28;46111;-76
2021/11/16 01:08:26;;;;;;;;;22.00;17.25;;;;;;;;5036128;28;45453;-75
2021/11/16 01:10:52;;;;;;;;;18.50;16.50;;;;;;;;5035479;28;45533;-75
2021/11/16 01:13:18;;;;;;;;;19.00;16.00;;;;;;;;5035716;28;45377;-75
2021/11/16 01:15:44;;;;;;;;;19.00;18.00;;;;;;;;5035325;28;45601;-76
2021/11/16 01:18:10;;;;;;;;;19.75;16.00;;;;;;;;5035069;28;45516;-75
2021/11/16 01:20:35;;;;;;;;;19.75;15.25;;;;;;;;5035333;28;45345;-77
2021/11/16 01:23:01;;;;;;;;;15.25;13.25;;;;;;;;5036266;28;45569;-76
2021/11/16 01:25:26;;;;;;;;;20.50;16.25;;;;;;;;5035370;28;45432;-76
2021/11/16 01:27:56;;;;;;;;;20.25;18.25;;;;;;;;5035265;28;45320;-75
2021/11/16 01:30:25;;;;;;;;;19.25;15.50;;;;;;;;5035347;28;45543;-74
2021/11/16 01:33:04;;;;;;;;;15.25;14.50;;;;;;;;5035063;28;45399;-76
2021/11/16 01:35:31;;;;;;;;;18.00;15.00;;;;;;;;5032760;28;46265;-76
2021/11/16 01:37:56;;;;;;;;;18.25;18.00;;;;;;;;5017670;28;45519;-75
2021/11/16 01:40:22;;;;;;;;;22.25;16.75;;;;;;;;5035253;28;45461;-76
2021/11/16 01:42:48;;;;;;;;;15.00;14.50;;;;;;;;5034280;28;45557;-76
2021/11/16 01:45:15;;;;;;;;;16.75;14.75;;;;;;;;5035337;28;46286;-77
2021/11/16 01:47:40;;;;;;;;;16.00;14.00;;;;;;;;5034876;28;45495;-75
2021/11/16 01:50:06;;;;;;;;;13.25;11.00;;;;;;;;5035834;28;45506;-76
2021/11/16 01:52:31;;;;;;;;;18.00;7.00;;;;;;;;5034837;28;45555;-75
2021/11/16 01:54:57;;;;;;;;;20.25;16.75;;;;;;;;5034621;28;46364;-75
2021/11/16 01:57:22;;;;;;;;;14.25;14.00;;;;;;;;5034968;28;45445;-76
2021/11/16 01:59:47;;;;;;;;;14.50;9.50;;;;;;;;5017216;28;45283;-75
2021/11/16 02:02:13;;;;;;;;;15.00;12.75;;;;;;;;5035534;28;45316;-76
2021/11/16 02:04:38;;;;;;;;;17.00;14.50;;;;;;;;5034592;28;46951;-76
2021/11/16 02:07:03;;;;;;;;;16.25;13.50;;;;;;;;5034693;28;45486;-76
2021/11/16 02:09:28;;;;;;;;;19.25;16.00;;;;;;;;5034868;28;45534;-76
2021/11/16 02:11:54;;;;;;;;;20.00;15.75;;;;;;;;5034970;28;45511;-76
2021/11/16 02:14:19;;;;;;;;;20.25;14.25;;;;;;;;5035086;28;45307;-75
2021/11/16 02:16:45;;;;;;;;;15.25;13.75;;;;;;;;5035473;28;45369;-75
2021/11/16 02:19:11;;;;;;;;;16.00;15.00;;;;;;;;5036263;28;45298;-76
2021/11/16 02:21:37;;;;;;;;;19.50;15.25;;;;;;;;5035088;28;45443;-76
2021/11/16 02:24:03;;;;;;;;;23.75;19.75;;;;;;;;5016868;28;47021;-76
2021/11/16 02:26:28;;;;;;;;;18.25;15.25;;;;;;;;5034797;28;45328;-76
2021/11/16 02:28:55;;;;;;;;;19.50;15.25;;;;;;;;5034881;28;45703;-76
2021/11/16 02:31:20;;;;;;;;;21.50;14.75;;;;;;;;5034391;28;45405;-75
2021/11/16 02:33:46;;;;;;;;;18.50;14.50;;;;;;;;5034343;28;45762;-76
2021/11/16 02:36:11;;;;;;;;;18.25;13.25;;;;;;;;5034697;28;45367;-76
2021/11/16 02:38:37;;;;;;;;;14.75;14.75;;;;;;;;5034621;28;45467;-76
2021/11/16 02:41:03;;;;;;;;;21.50;16.50;;;;;;;;5032957;28;45273;-76
2021/11/16 02:43:29;;;;;;;;;11.25;8.50;;;;;;;;5033740;28;46124;-76
2021/11/16 02:45:55;;;;;;;;;18.00;14.50;;;;;;;;5034296;28;45264;-76
2021/11/16 02:48:20;;;;;;;;;17.25;13.25;;;;;;;;5034310;28;45268;-75
2021/11/16 02:50:47;;;;;;;;;15.75;12.50;;;;;;;;5034362;28;45591;-76
2021/11/16 02:53:13;;;;;;;;;18.25;16.00;;;;;;;;5034873;28;47294;-76
2021/11/16 02:55:38;;;;;;;;;20.00;11.25;;;;;;;;5037653;28;45420;-75
2021/11/16 02:58:04;;;;;;;;;16.00;14.00;;;;;;;;5037633;28;45516;-76
2021/11/16 03:00:29;;;;;;;;;16.25;14.00;;;;;;;;5037600;28;45482;-75
2021/11/16 03:02:55;;;;;;;;;18.50;15.75;;;;;;;;5037677;28;45645;-76
2021/11/16 03:05:21;;;;;;;;;16.25;12.75;;;;;;;;5038432;28;45361;-76
2021/11/16 03:07:48;;;;;;;;;16.75;15.75;;;;;;;;5037662;28;45545;-76
2021/11/16 03:10:15;;;;;;;;;19.50;15.00;;;;;;;;5037293;28;45410;-76
2021/11/16 03:12:40;;;;;;;;;17.00;12.50;;;;;;;;5036843;28;46303;-77
2021/11/16 03:15:06;;;;;;;;;16.50;14.25;;;;;;;;5037466;28;45280;-76
2021/11/16 03:17:31;;;;;;;;;18.50;15.25;;;;;;;;5037767;28;45340;-76
2021/11/16 03:19:56;;;;;;;;;19.25;16.00;;;;;;;;5038020;28;45189;-75
2021/11/16 03:22:25;;;;;;;;;14.50;12.00;;;;;;;;5037116;28;45423;-76
2021/11/16 03:24:51;;;;;;;;;18.50;14.75;;;;;;;;5037181;28;45428;-76
2021/11/16 03:27:18;;;;;;;;;23.00;14.75;;;;;;;;5037017;28;45395;-76
2021/11/16 03:29:47;;;;;;;;;16.50;14.25;;;;;;;;5037334;28;45495;-76
2021/11/16 03:32:15;;;;;;;;;16.50;13.00;;;;;;;;5037660;28;46150;-75
2021/11/16 03:34:44;;;;;;;;;16.25;14.00;;;;;;;;5036757;28;45406;-75
2021/11/16 03:37:10;;;;;;;;;15.75;13.50;;;;;;;;5036957;28;45490;-76
2021/11/16 03:39:36;;;;;;;;;17.00;11.50;;;;;;;;5037069;28;45429;-75
2021/11/16 03:42:02;;;;;;;;;17.75;13.25;;;;;;;;5036995;28;45474;-75
2021/11/16 03:44:27;;;;;;;;;15.75;12.75;;;;;;;;5036898;28;45423;-76
2021/11/16 03:46:53;;;;;;;;;16.75;16.00;;;;;;;;5037134;28;45350;-74
2021/11/16 03:49:18;;;;;;;;;17.00;15.50;;;;;;;;5036705;28;45471;-74
2021/11/16 03:51:45;;;;;;;;;19.75;16.25;;;;;;;;5036305;28;46300;-74
2021/11/16 03:54:11;;;;;;;;;16.75;15.25;;;;;;;;5036586;28;45633;-74
2021/11/16 03:56:37;;;;;;;;;24.75;18.50;;;;;;;;5036233;28;45391;-76
2021/11/16 03:59:03;;;;;;;;;27.25;17.25;;;;;;;;5037023;28;45345;-77
2021/11/16 04:01:28;;;;;;;;;17.50;13.50;;;;;;;;5036137;28;47354;-77
2021/11/16 04:03:53;;;;;;;;;23.50;15.00;;;;;;;;5036704;28;45532;-76
2021/11/16 04:06:21;;;;;;;;;20.00;17.25;;;;;;;;5035630;28;45514;-77
2021/11/16 04:08:46;;;;;;;;;21.50;15.50;;;;;;;;5036907;28;45173;-76
2021/11/16 04:11:11;;;;;;;;;16.75;13.75;;;;;;;;5036980;28;45248;-73
2021/11/16 04:13:37;;;;;;;;;21.00;17.25;;;;;;;;5036522;28;45483;-74
2021/11/16 04:16:03;;;;;;;;;25.50;19.50;;;;;;;;5036663;28;45502;-76
2021/11/16 04:18:28;;;;;;;;;19.75;17.50;;;;;;;;5036263;28;45386;-76
2021/11/16 04:20:55;;;;;;;;;22.00;17.25;;;;;;;;5036042;28;46398;-77
2021/11/16 04:23:20;;;;;;;;;17.50;14.50;;;;;;;;5036591;28;45430;-76
2021/11/16 04:25:46;;;;;;;;;25.00;17.25;;;;;;;;5035317;28;45546;-76
2021/11/16 04:28:11;;;;;;;;;20.25;18.25;;;;;;;;5035479;28;45458;-76
2021/11/16 04:30:37;;;;;;;;;20.25;17.00;;;;;;;;5035975;28;46095;-76
2021/11/16 04:33:03;;;;;;;;;21.75;17.50;;;;;;;;5036000;28;45516;-76
2021/11/16 04:35:29;;;;;;;;;19.00;17.00;;;;;;;;5036263;28;45309;-76
2021/11/16 04:37:55;;;;;;;;;20.50;19.75;;;;;;;;5035106;28;45467;-77
2021/11/16 04:40:24;;;;;;;;;22.75;20.50;;;;;;;;5035057;28;45422;-76
2021/11/16 04:42:50;;;;;;;;;22.50;18.75;;;;;;;;5035508;28;45561;-76
2021/11/16 04:45:21;;;;;;;;;23.75;21.25;;;;;;;;5035469;28;45615;-75
2021/11/16 04:48:00;;;;;;;;;19.25;16.25;;;;;;;;5035770;28;45225;-77
2021/11/16 04:50:36;;;;;;;;;20.75;19.50;;;;;;;;5032357;28;47314;-77
2021/11/16 05:03:49;;;;;;;;;24.50;20.50;;;;;;;;4954072;28;46177;-76
2021/11/16 05:06:15;;;;;;;;;21.25;18.25;;;;;;;;4954488;28;45496;-75
2021/11/16 05:08:43;;;;;;;;;22.00;20.00;;;;;;;;4953505;28;45374;-74
2021/11/16 05:11:08;;;;;;;;;21.25;17.25;;;;;;;;4954195;28;46292;-77
2021/11/16 05:13:34;;;;;;;;;25.00;18.75;;;;;;;;4953664;28;45682;-77
2021/11/16 05:15:59;;;;;;;;;22.25;17.75;;;;;;;;4954020;28;45579;-77
2021/11/16 05:18:24;;;;;;;;;26.25;20.75;;;;;;;;4953669;28;45443;-77
2021/11/16 05:20:49;;;;;;;;;24.75;20.50;;;;;;;;4953299;28;46554;-76
2021/11/16 05:23:17;;;;;;;;;26.25;20.25;;;;;;;;4953616;28;45299;-75
2021/11/16 05:25:47;;;;;;;;;27.50;18.00;;;;;;;;4953661;28;45536;-77
2021/11/16 05:28:13;;;;;;;;;23.75;19.25;;;;;;;;4953272;28;45454;-75
2021/11/16 05:30:38;;;;;;;;;23.00;19.75;;;;;;;;4952774;28;46263;-77
2021/11/16 05:33:03;;;;;;;;;25.75;22.00;;;;;;;;4953291;28;45530;-74
2021/11/16 05:35:28;;;;;;;;;25.00;22.25;;;;;;;;4986925;28;45450;-74
2021/11/16 05:37:54;;;;;;;;;32.50;23.00;;;;;;;;5034461;28;45427;-72
2021/11/16 05:40:19;;;;;;;;;24.75;21.00;;;;;;;;5034248;28;46436;-75
2021/11/16 05:42:44;;;;;;;;;25.25;23.75;;;;;;;;5033865;28;45435;-75
2021/11/16 05:45:10;;;;;;;;;29.50;23.75;;;;;;;;5034143;28;45353;-74
2021/11/16 05:47:38;;;;;;;;;26.00;23.50;;;;;;;;5034176;28;45411;-74
2021/11/16 05:50:04;;;;;;;;;29.00;25.50;;;;;;;;5032786;28;47066;-74
2021/11/16 05:52:29;;;;;;;;;28.25;21.00;;;;;;;;5033842;28;45383;-76
2021/11/16 05:54:54;;;;;;;;;26.25;22.00;;;;;;;;5034030;28;45358;-73
2021/11/16 05:57:20;;;;;;;;;25.25;21.00;;;;;;;;5034016;28;45536;-75
2021/11/16 05:59:45;;;;;;;;;25.50;22.00;;;;;;;;5034107;28;46887;-76
2021/11/16 06:02:11;;;;;;;;;28.75;19.00;;;;;;;;5034450;28;45263;-75
2021/11/16 06:04:37;;;;;;;;;25.50;21.75;;;;;;;;5034166;28;45466;-75
2021/11/16 06:07:03;;;;;;;;;49.00;36.50;;;;;;;;5033900;28;45332;-75
2021/11/16 06:09:31;;;;;;;;;32.50;30.50;;;;;;;;5034044;28;47723;-74
2021/11/16 06:11:56;;;;;;;;;23.25;20.25;;;;;;;;5034225;28;45767;-76
2021/11/16 06:14:21;;;;;;;;;24.25;20.75;;;;;;;;5034144;28;45255;-76
2021/11/16 06:16:47;;;;;;;;;25.75;24.50;;;;;;;;5033701;28;45553;-76
2021/11/16 06:19:12;;;;;;;;;15.25;13.25;;;;;;;;5033752;28;46020;-75
2021/11/16 06:21:38;;;;;;;;;23.25;21.00;;;;;;;;5033380;28;45363;-75
2021/11/16 06:24:03;;;;;;;;;28.25;23.50;;;;;;;;5033988;28;45578;-75
2021/11/16 06:26:32;;;;;;;;;24.75;20.00;;;;;;;;5033751;28;45368;-75
2021/11/16 06:28:58;;;;;;;;;28.00;22.75;;;;;;;;5034313;28;46538;-77
2021/11/16 06:31:26;;;;;;;;;22.00;18.25;;;;;;;;5036546;28;45255;-76
2021/11/16 06:33:52;;;;;;;;;29.25;25.00;;;;;;;;5036378;28;45387;-77
2021/11/16 06:36:17;;;;;;;;;28.00;26.25;;;;;;;;5036244;28;45429;-74
2021/11/16 06:38:42;;;;;;;;;25.00;22.00;;;;;;;;5036454;28;46911;-75
2021/11/16 06:41:07;;;;;;;;;24.25;18.75;;;;;;;;5037314;28;45642;-75
2021/11/16 06:43:34;;;;;;;;;24.75;20.25;;;;;;;;5037446;28;45505;-75
2021/11/16 06:46:00;;;;;;;;;23.25;20.25;;;;;;;;5036858;28;45291;-74
2021/11/16 06:48:26;;;;;;;;;22.00;20.75;;;;;;;;5036582;28;46424;-74
2021/11/16 06:50:52;;;;;;;;;26.25;24.25;;;;;;;;5036378;28;45585;-74
2021/11/16 06:53:28;;;;;;;;;27.75;21.75;;;;;;;;5037470;28;45456;-74
2021/11/16 06:55:54;;;;;;;;;27.50;21.75;;;;;;;;5036264;28;45364;-74
2021/11/16 06:58:19;;;;;;;;;29.75;27.75;;;;;;;;5036160;28;46285;-75
2021/11/16 07:00:45;;;;;;;;;21.75;18.25;;;;;;;;5035888;28;45539;-73
2021/11/16 07:03:15;;;;;;;;;27.75;26.00;;;;;;;;5036122;28;45443;-74
2021/11/16 07:05:45;;;;;;;;;31.00;23.25;;;;;;;;5036328;28;45361;-74
2021/11/16 07:08:10;;;;;;;;;29.25;22.00;;;;;;;;5036288;28;47427;-74
2021/11/16 07:10:36;;;;;;;;;29.75;23.25;;;;;;;;5035583;28;45328;-74
2021/11/16 07:13:05;;;;;;;;;26.25;22.25;;;;;;;;5035830;28;45414;-74
2021/11/16 07:15:32;;;;;;;;;30.50;26.50;;;;;;;;5035800;28;45551;-74
2021/11/16 07:18:00;;;;;;;;;29.50;23.50;;;;;;;;5034851;28;45786;-74
2021/11/16 07:20:26;;;;;;;;;20.25;20.25;;;;;;;;5035713;28;45419;-74
2021/11/16 07:22:52;;;;;;;;;21.50;20.00;;;;;;;;5037034;28;45358;-74
2021/11/16 07:25:17;;;;;;;;;28.75;21.50;;;;;;;;5035725;28;45326;-74
2021/11/16 07:27:44;;;;;;;;;29.50;25.75;;;;;;;;5035843;28;46062;-78
2021/11/16 07:30:14;;;;;;;;;22.75;22.75;;;;;;;;5035904;28;45482;-77
2021/11/16 07:32:47;;;;;;;;;28.25;21.50;;;;;;;;5035636;28;45310;-76
2021/11/16 07:35:15;;;;;;;;;29.75;23.75;;;;;;;;5035663;28;45434;-75
2021/11/16 07:37:40;;;;;;;;;27.25;24.50;;;;;;;;5035055;28;46478;-76
2021/11/16 07:40:07;;;;;;;;;25.00;18.75;;;;;;;;5034149;28;45322;-75
2021/11/16 07:42:34;;;;;;;;;26.75;23.75;;;;;;;;5035298;28;45428;-75
2021/11/16 07:45:03;;;;;;;;;31.25;27.75;;;;;;;;5035164;28;45229;-76
2021/11/16 07:47:37;;;;;;;;;26.75;24.75;;;;;;;;5035140;28;46618;-75
2021/11/16 07:50:04;;;;;;;;;26.25;22.25;;;;;;;;5034630;28;45445;-77
2021/11/16 07:52:29;;;;;;;;;26.50;22.50;;;;;;;;5034357;28;45406;-77
2021/11/16 07:54:54;;;;;;;;;23.50;22.75;;;;;;;;5034850;28;46799;-75
2021/11/16 07:57:19;;;;;;;;;26.00;20.75;;;;;;;;5034285;28;45365;-75
2021/11/16 07:59:45;;;;;;;;;33.75;25.50;;;;;;;;5034701;28;45263;-75
2021/11/16 08:02:22;;;;;;;;;25.75;23.25;;;;;;;;5035686;28;45423;-76
2021/11/16 08:05:10;;;;;;;;;23.75;21.75;;;;;;;;5035839;28;45266;-75
2021/11/16 08:07:50;;;;;;;;;22.25;18.75;;;;;;;;5034215;28;45523;-74
2021/11/16 08:10:22;;;;;;;;;26.25;23.00;;;;;;;;5034401;28;45288;-75
2021/11/16 08:12:49;;;;;;;;;28.50;22.75;;;;;;;;5034189;28;45378;-75
2021/11/16 08:15:14;;;;;;;;;31.50;24.75;;;;;;;;5034219;28;45248;-74
2021/11/16 08:17:40;;;;;;;;;23.00;22.75;;;;;;;;5033455;28;45466;-75
2021/11/16 08:20:07;;;;;;;;;22.00;17.25;;;;;;;;5034479;28;45406;-75
2021/11/16 08:22:32;;;;;;;;;22.75;18.25;;;;;;;;5033990;28;45480;-77
2021/11/16 08:24:58;;;;;;;;;25.25;22.25;;;;;;;;5033887;28;45602;-76
2021/11/16 08:27:27;;;;;;;;;29.75;26.00;;;;;;;;5033950;28;45313;-75
2021/11/16 08:30:01;;;;;;;;;29.50;27.00;;;;;;;;5000757;28;45541;-75
2021/11/16 08:32:34;;;;;;;;;21.50;15.50;;;;;;;;5031011;28;45465;-74
2021/11/16 08:34:59;;;;;;;;;27.00;22.75;;;;;;;;5034748;28;45465;-76
2021/11/16 08:37:31;;;;;;;;;22.00;16.50;;;;;;;;5033989;28;45419;-76
2021/11/16 08:39:57;;;;;;;;;19.00;17.25;;;;;;;;5034038;28;45260;-75
2021/11/16 08:42:27;;;;;;;;;23.50;21.00;;;;;;;;5034516;28;45463;-75
2021/11/16 08:44:56;;;;;;;;;23.50;18.75;;;;;;;;5018428;28;45433;-74
2021/11/16 08:47:25;;;;;;;;;21.00;19.00;;;;;;;;5030174;28;46967;-75
2021/11/16 08:49:50;;;;;;;;;23.25;20.75;;;;;;;;5033509;28;45651;-75
2021/11/16 08:52:16;;;;;;;;;27.25;24.75;;;;;;;;5033435;28;45411;-74
2021/11/16 08:55:02;;;;;;;;;20.25;18.00;;;;;;;;5033843;28;45383;-75
2021/11/16 08:57:28;;;;;;;;;26.25;22.50;;;;;;;;5022444;28;45418;-74
2021/11/16 08:59:54;;;;;;;;;12.00;12.00;;;;;;;;5033740;28;45329;-74
2021/11/16 09:02:21;;;;;;;;;24.75;17.75;;;;;;;;5034063;28;45304;-75
2021/11/16 09:04:46;;;;;;;;;23.00;18.25;;;;;;;;5033920;28;45570;-74
2021/11/16 09:07:31;;;;;;;;;22.25;20.00;;;;;;;;5033357;28;46220;-74
2021/11/16 09:10:08;;;;;;;;;25.75;21.50;;;;;;;;5033977;28;45283;-74
2021/11/16 09:12:39;;;;;;;;;27.50;24.75;;;;;;;;5033558;28;45460;-75
2021/11/16 09:15:05;;;;;;;;;29.25;24.50;;;;;;;;5033551;28;45304;-74
2021/11/16 09:17:30;;;;;;;;;32.00;24.00;;;;;;;;5033942;28;46680;-74
2021/11/16 09:19:55;;;;;;;;;20.00;17.75;;;;;;;;5033915;28;45268;-74
2021/11/16 09:22:20;;;;;;;;;27.00;23.75;;;;;;;;5033573;28;45460;-74
2021/11/16 09:24:48;;;;;;;;;25.75;20.50;;;;;;;;5033655;28;45328;-73
2021/11/16 09:27:34;;;;;;;;;22.25;19.25;;;;;;;;5033414;28;45438;-74
2021/11/16 09:29:59;;;;;;;;;24.75;22.00;;;;;;;;5017568;28;45481;-74
2021/11/16 09:32:24;;;;;;;;;25.25;21.50;;;;;;;;5015747;28;45267;-73
2021/11/16 09:34:50;;;;;;;;;25.50;21.25;;;;;;;;5033311;28;45580;-72
2021/11/16 09:37:17;;;;;;;;;25.75;21.00;;;;;;;;5032893;28;46354;-75
2021/11/16 09:39:47;;;;;;;;;24.25;17.75;;;;;;;;5033047;28;45391;-75
2021/11/16 09:42:14;;;;;;;;;26.50;22.50;;;;;;;;5033042;28;45401;-74
2021/11/16 09:44:44;;;;;;;;;21.50;20.50;;;;;;;;5032011;28;45443;-75
2021/11/16 09:47:17;;;;;;;;;24.25;17.50;;;;;;;;5033580;28;45285;-74
2021/11/16 09:49:47;;;;;;;;;23.50;21.50;;;;;;;;5033252;28;45321;-74
2021/11/16 09:52:17;;;;;;;;;25.50;22.00;;;;;;;;5033255;28;45414;-74
2021/11/16 09:54:51;;;;;;;;;33.00;23.50;;;;;;;;5032973;28;45533;-74
2021/11/16 09:57:17;;;;;;;;;20.25;18.00;;;;;;;;5032022;28;47654;-75
2021/11/16 09:59:43;;;;;;;;;21.00;17.00;;;;;;;;5033572;28;46315;-75
2021/11/16 10:02:21;;;;;;;;;22.75;16.75;;;;;;;;5034513;28;45356;-77
2021/11/16 10:04:50;;;;;;;;;21.25;19.25;;;;;;;;5032846;28;45663;-75
2021/11/16 10:07:15;;;;;;;;;17.25;15.00;;;;;;;;5033327;28;46373;-75
2021/11/16 10:09:42;;;;;;;;;22.75;19.00;;;;;;;;5033263;28;45380;-75
2021/11/16 10:12:08;;;;;;;;;27.75;22.25;;;;;;;;5033290;28;45466;-76
2021/11/16 10:14:33;;;;;;;;;27.50;21.50;;;;;;;;5032753;28;45440;-74
2021/11/16 10:16:59;;;;;;;;;24.25;21.50;;;;;;;;5033633;28;47224;-74
2021/11/16 10:19:24;;;;;;;;;22.00;17.25;;;;;;;;5032720;28;45430;-74
2021/11/16 10:21:49;;;;;;;;;27.25;21.00;;;;;;;;5032345;28;45438;-75
2021/11/16 10:24:31;;;;;;;;;20.25;17.75;;;;;;;;5033035;28;45431;-74
2021/11/16 10:27:22;;;;;;;;;18.25;17.75;;;;;;;;5016930;28;46383;-75
2021/11/16 10:30:06;;;;;;;;;22.75;17.25;;;;;;;;5028112;28;45520;-74
2021/11/16 10:32:31;;;;;;;;;22.75;19.75;;;;;;;;5030216;28;45160;-74
2021/11/16 10:35:16;;;;;;;;;16.25;16.25;;;;;;;;5033145;28;45344;-74
2021/11/16 10:37:54;;;;;;;;;14.00;14.00;;;;;;;;5031731;28;46058;-74
2021/11/16 10:40:21;;;;;;;;;21.50;18.00;;;;;;;;5032321;28;45331;-74
2021/11/16 10:42:47;;;;;;;;;21.75;17.00;;;;;;;;5032458;28;45463;-76
2021/11/16 10:45:14;;;;;;;;;23.00;18.75;;;;;;;;5032829;28;45573;-74
2021/11/16 10:47:40;;;;;;;;;24.50;19.50;;;;;;;;5032631;28;47038;-75
2021/11/16 10:50:09;;;;;;;;;22.25;19.25;;;;;;;;5033799;28;45404;-76
2021/11/16 10:52:36;;;;;;;;;21.50;18.75;;;;;;;;5014988;28;45688;-75
2021/11/16 10:55:02;;;;;;;;;19.00;16.50;;;;;;;;5033846;28;45510;-75
2021/11/16 10:57:47;;;;;;;;;18.75;17.75;;;;;;;;5033430;28;45492;-75
2021/11/16 11:00:13;;;;;;;;;22.50;15.50;;;;;;;;5014401;28;45533;-75
2021/11/16 11:02:40;;;;;;;;;21.25;18.25;;;;;;;;5032337;28;45202;-74
2021/11/16 11:05:05;;;;;;;;;20.75;20.75;;;;;;;;5033022;28;45268;-75
2021/11/16 11:07:37;;;;;;;;;18.50;15.00;;;;;;;;5014282;28;47791;-74
2021/11/16 11:10:02;;;;;;;;;28.25;19.25;;;;;;;;5032071;28;45389;-75
2021/11/16 11:12:29;;;;;;;;;21.00;16.50;;;;;;;;5031836;28;45438;-75
2021/11/16 11:14:55;;;;;;;;;24.75;19.25;;;;;;;;5033455;28;45389;-75
2021/11/16 11:17:30;;;;;;;;;19.00;17.00;;;;;;;;5017877;28;47118;-75
2021/11/16 11:20:05;;;;;;;;;18.75;17.50;;;;;;;;5035426;28;45358;-74
2021/11/16 11:22:33;;;;;;;;;25.75;21.25;;;;;;;;5016827;28;45420;-75
2021/11/16 11:25:48;;;;;;;;;19.25;12.75;;;;;;;;5036623;28;45472;-75
2021/11/16 11:28:29;;;;;;;;;16.00;11.50;;;;;;;;5027041;28;45936;-75
2021/11/16 11:30:41;;;;;;;;;22.25;16.00;;;;;;;;5032863;28;45619;-74
2021/11/16 11:33:06;;;;;;;;;17.75;16.00;;;;;;;;5035507;28;45396;-76
2021/11/16 11:35:31;;;;;;;;;18.50;15.00;;;;;;;;5035243;28;45457;-75
2021/11/16 11:38:10;;;;;;;;;18.75;16.00;;;;;;;;5016890;28;46311;-75
2021/11/16 11:40:38;;;;;;;;;22.75;20.00;;;;;;;;5034428;28;45312;-75
2021/11/16 11:43:04;;;;;;;;;20.25;18.50;;;;;;;;5034616;28;45562;-73
2021/11/16 11:45:35;;;;;;;;;25.25;23.75;;;;;;;;5034851;28;45418;-75
2021/11/16 11:48:00;;;;;;;;;16.50;12.00;;;;;;;;5034679;28;46868;-75
2021/11/16 11:50:38;;;;;;;;;17.50;14.75;;;;;;;;5035101;28;45361;-76
2021/11/16 11:53:05;;;;;;;;;18.00;17.75;;;;;;;;5035434;28;45580;-76
2021/11/16 11:55:32;;;;;;;;;17.00;15.75;;;;;;;;5034403;28;45530;-75
2021/11/16 11:57:57;;;;;;;;;20.25;18.25;;;;;;;;5034333;28;45920;-75
2021/11/16 12:00:24;;;;;;;;;19.00;19.00;;;;;;;;5035179;28;45556;-76
2021/11/16 12:02:49;;;;;;;;;19.00;16.00;;;;;;;;5035550;28;45420;-75
2021/11/16 12:05:15;;;;;;;;;24.25;22.00;;;;;;;;5035090;28;45399;-75
2021/11/16 12:07:40;;;;;;;;;19.50;16.00;;;;;;;;5034551;28;46148;-74
2021/11/16 12:10:06;;;;;;;;;12.75;11.00;;;;;;;;5034347;28;45312;-75
2021/11/16 12:12:31;;;;;;;;;18.75;17.75;;;;;;;;5034576;28;45456;-75
2021/11/16 12:15:02;;;;;;;;;12.75;10.25;;;;;;;;5035067;28;45158;-75
2021/11/16 12:17:30;;;;;;;;;14.50;13.25;;;;;;;;5035655;28;46135;-75
2021/11/16 12:19:55;;;;;;;;;14.00;10.50;;;;;;;;5034730;28;45321;-73
2021/11/16 12:22:24;;;;;;;;;10.00;9.50;;;;;;;;5034118;28;45334;-75
2021/11/16 12:24:50;;;;;;;;;11.00;11.00;;;;;;;;5034251;28;45328;-75
2021/11/16 12:27:18;;;;;;;;;17.25;16.25;;;;;;;;5033096;28;46254;-74
2021/11/16 12:29:46;;;;;;;;;19.50;15.25;;;;;;;;5033795;28;45531;-75
2021/11/16 12:32:16;;;;;;;;;17.75;14.25;;;;;;;;5034470;28;45767;-74
2021/11/16 12:34:48;;;;;;;;;18.75;17.00;;;;;;;;5033409;28;45452;-75
2021/11/16 12:37:33;;;;;;;;;15.50;12.50;;;;;;;;5033772;28;46959;-75
2021/11/16 12:40:01;;;;;;;;;14.25;11.75;;;;;;;;5033849;28;45533;-74
2021/11/16 12:42:26;;;;;;;;;17.50;14.00;;;;;;;;5033900;28;45439;-75
2021/11/16 12:45:00;;;;;;;;;32.00;25.00;;;;;;;;5034089;28;45502;-75
2021/11/16 12:47:29;;;;;;;;;14.50;10.75;;;;;;;;5031667;28;46691;-76
2021/11/16 12:50:11;;;;;;;;;22.75;17.75;;;;;;;;5034015;28;45463;-76
2021/11/16 12:52:44;;;;;;;;;22.00;18.00;;;;;;;;5033508;28;45414;-73
2021/11/16 12:55:19;;;;;;;;;23.25;20.50;;;;;;;;5033743;28;45398;-75
2021/11/16 12:57:44;;;;;;;;;23.50;19.25;;;;;;;;5034358;28;46225;-75
2021/11/16 13:00:12;;;;;;;;;21.75;18.50;;;;;;;;5034102;28;45416;-73
2021/11/16 13:02:47;;;;;;;;;21.75;16.75;;;;;;;;5034874;28;45335;-76
2021/11/16 13:05:25;;;;;;;;;19.75;18.50;;;;;;;;5034731;28;45536;-76
2021/11/16 13:07:54;;;;;;;;;19.75;17.50;;;;;;;;5034382;28;46473;-76
2021/11/16 13:10:21;;;;;;;;;20.50;17.75;;;;;;;;5033983;28;45533;-74
2021/11/16 13:12:50;;;;;;;;;23.25;20.00;;;;;;;;5034096;28;45506;-75
2021/11/16 13:15:35;;;;;;;;;18.25;16.75;;;;;;;;5016177;28;45455;-75
2021/11/16 13:18:11;;;;;;;;;19.75;16.50;;;;;;;;5033640;28;45464;-74
2021/11/16 13:20:45;;;;;;;;;20.75;19.00;;;;;;;;5033704;28;45649;-75
2021/11/16 13:23:13;;;;;;;;;27.25;22.00;;;;;;;;5032525;28;45430;-75
2021/11/16 13:25:41;;;;;;;;;26.25;19.25;;;;;;;;5033562;28;45562;-76
2021/11/16 13:28:29;;;;;;;;;18.25;14.75;;;;;;;;5033248;28;46975;-74
2021/11/16 13:31:18;;;;;;;;;17.50;14.75;;;;;;;;5032196;28;45366;-74
2021/11/16 13:33:51;;;;;;;;;14.25;14.25;;;;;;;;5024580;28;45391;-75
2021/11/16 13:36:18;;;;;;;;;16.75;16.75;;;;;;;;5033120;28;45519;-74
2021/11/16 13:38:57;;;;;;;;;19.75;19.00;;;;;;;;5033924;28;46990;-75
2021/11/16 13:41:41;;;;;;;;;20.50;17.25;;;;;;;;5030402;28;45292;-74
2021/11/16 13:44:15;;;;;;;;;17.50;14.75;;;;;;;;5027774;28;45354;-75
2021/11/16 13:46:41;;;;;;;;;20.25;18.25;;;;;;;;5015067;28;45509;-75
2021/11/16 13:49:07;;;;;;;;;19.25;18.00;;;;;;;;5033173;28;47004;-76
2021/11/16 13:51:33;;;;;;;;;19.75;16.75;;;;;;;;5033136;28;45838;-75
2021/11/16 13:54:03;;;;;;;;;26.25;25.00;;;;;;;;5032951;28;45253;-75
2021/11/16 13:56:29;;;;;;;;;32.00;23.00;;;;;;;;5033003;28;45362;-75
2021/11/16 13:58:54;;;;;;;;;18.75;17.50;;;;;;;;5033050;28;45370;-74
2021/11/16 14:01:29;;;;;;;;;22.50;17.00;;;;;;;;5033175;28;45336;-74
2021/11/16 14:04:13;;;;;;;;;29.00;24.25;;;;;;;;5033189;28;45245;-75
2021/11/16 14:06:38;;;;;;;;;27.25;23.50;;;;;;;;5032429;28;45495;-75
2021/11/16 14:09:11;;;;;;;;;22.50;19.00;;;;;;;;5033021;28;45292;-75
2021/11/16 14:11:57;;;;;;;;;24.00;21.75;;;;;;;;5033007;28;45295;-75
2021/11/16 14:14:27;;;;;;;;;24.75;20.50;;;;;;;;5029302;28;45311;-75
2021/11/16 14:16:54;;;;;;;;;24.50;21.50;;;;;;;;5033060;28;45343;-75
2021/11/16 14:19:20;;;;;;;;;22.50;19.75;;;;;;;;5031946;28;46172;-77
2021/11/16 14:21:46;;;;;;;;;19.50;18.25;;;;;;;;5032222;28;45322;-74
2021/11/16 14:24:12;;;;;;;;;21.25;20.75;;;;;;;;5032740;28;45381;-75
2021/11/16 14:26:38;;;;;;;;;21.00;19.00;;;;;;;;5032375;28;45524;-76
2021/11/16 14:29:05;;;;;;;;;38.50;34.75;;;;;;;;5032824;28;46459;-77
2021/11/16 14:31:32;;;;;;;;;25.75;23.00;;;;;;;;5032963;28;45427;-75
2021/11/16 14:33:58;;;;;;;;;27.50;23.50;;;;;;;;5032498;28;45407;-75